createdAt,value
2022-10-09T00:01:16.313Z,9.16
2022-10-09T00:03:45.664Z,9.15
2022-10-09T00:06:20.698Z,9.10
2022-10-09T00:08:47.297Z,9.10
2022-10-09T00:11:16.991Z,9.09
2022-10-09T00:13:44.090Z,9.10
2022-10-09T00:16:14.633Z,9.11
2022-10-09T00:18:42.100Z,9.12
2022-10-09T00:21:21.275Z,9.07
2022-10-09T00:23:48.897Z,9.06
2022-10-09T00:26:15.716Z,9.06
2022-10-09T00:28:42.360Z,9.05
2022-10-09T00:31:10.489Z,9.02
2022-10-09T00:33:38.959Z,9.02
2022-10-09T00:36:07.458Z,9.01
2022-10-09T00:38:34.313Z,9.00
2022-10-09T00:41:01.258Z,9.03
2022-10-09T00:43:52.433Z,9.00
2022-10-09T00:46:48.115Z,9.00
2022-10-09T00:49:26.834Z,9.00
2022-10-09T00:51:55.652Z,9.00
2022-10-09T00:54:27.136Z,8.98
2022-10-09T00:56:54.508Z,8.93
2022-10-09T00:59:21.913Z,8.91
2022-10-09T01:01:48.567Z,8.90
2022-10-09T01:04:15.373Z,8.87
2022-10-09T01:07:00.242Z,8.84
2022-10-09T01:09:39.616Z,8.80
2022-10-09T01:12:06.063Z,8.76
2022-10-09T01:14:38.152Z,8.74
2022-10-09T01:17:18.042Z,8.65
2022-10-09T01:20:12.629Z,8.64
2022-10-09T01:23:07.963Z,8.65
2022-10-09T01:25:39.755Z,8.68
2022-10-09T01:28:07.833Z,8.66
2022-10-09T01:30:35.409Z,8.63
2022-10-09T01:33:03.160Z,8.61
2022-10-09T01:35:30.921Z,8.58
2022-10-09T01:37:59.634Z,8.55
2022-10-09T01:40:28.395Z,8.53
2022-10-09T01:42:55.518Z,8.51
2022-10-09T01:45:22.040Z,8.46
2022-10-09T01:47:48.773Z,8.41
2022-10-09T01:50:15.222Z,8.38
2022-10-09T01:52:54.561Z,8.36
2022-10-09T01:55:42.725Z,8.34
2022-10-09T01:58:09.218Z,8.31
2022-10-09T02:00:44.281Z,8.27
2022-10-09T02:03:14.463Z,8.25
2022-10-09T02:05:43.200Z,8.23
2022-10-09T02:08:15.073Z,8.20
2022-10-09T02:10:43.688Z,8.17
2022-10-09T02:13:10.712Z,8.15
2022-10-09T02:15:50.693Z,8.09
2022-10-09T02:18:29.603Z,8.07
2022-10-09T02:21:01.658Z,8.04
2022-10-09T02:23:28.904Z,7.94
2022-10-09T02:25:55.723Z,7.96
2022-10-09T02:28:22.803Z,7.95
2022-10-09T02:31:01.429Z,7.95
2022-10-09T02:33:32.761Z,7.99
2022-10-09T02:35:59.444Z,8.03
2022-10-09T02:38:26.559Z,8.06
2022-10-09T02:40:53.081Z,8.06
2022-10-09T02:43:19.728Z,8.05
2022-10-09T02:45:46.257Z,8.02
2022-10-09T02:48:12.767Z,7.97
2022-10-09T02:50:39.312Z,7.93
2022-10-09T02:53:05.852Z,7.88
2022-10-09T02:55:32.412Z,7.84
2022-10-09T02:57:58.917Z,7.80
2022-10-09T03:00:25.457Z,7.83
2022-10-09T03:02:52.768Z,7.82
2022-10-09T03:05:19.590Z,7.82
2022-10-09T03:07:51.315Z,7.83
2022-10-09T03:10:19.684Z,7.81
2022-10-09T03:12:47.044Z,7.79
2022-10-09T03:15:14.112Z,7.76
2022-10-09T03:17:40.663Z,7.77
2022-10-09T03:20:08.023Z,7.80
2022-10-09T03:22:34.586Z,7.81
2022-10-09T03:25:01.095Z,7.80
2022-10-09T03:27:27.627Z,7.81
2022-10-09T03:29:54.161Z,7.80
2022-10-09T03:32:20.695Z,7.82
2022-10-09T03:34:47.209Z,7.82
2022-10-09T03:37:13.808Z,7.82
2022-10-09T03:39:40.306Z,7.83
2022-10-09T03:42:06.833Z,7.83
2022-10-09T03:44:33.407Z,7.85
2022-10-09T03:47:00.104Z,7.84
2022-10-09T03:49:26.679Z,7.85
2022-10-09T03:51:53.173Z,7.80
2022-10-09T03:54:19.767Z,7.79
2022-10-09T03:56:46.302Z,7.78
2022-10-09T03:59:13.001Z,7.78
2022-10-09T04:01:39.855Z,7.79
2022-10-09T04:04:06.388Z,7.75
2022-10-09T04:06:33.057Z,7.75
2022-10-09T04:09:01.264Z,7.75
2022-10-09T04:11:27.755Z,7.75
2022-10-09T04:13:54.412Z,7.75
2022-10-09T04:16:21.036Z,7.77
2022-10-09T04:18:47.966Z,7.78
2022-10-09T04:21:14.533Z,7.78
2022-10-09T04:23:41.076Z,7.75
2022-10-09T04:26:07.629Z,7.74
2022-10-09T04:28:34.261Z,7.70
2022-10-09T04:31:01.794Z,7.68
2022-10-09T04:33:28.392Z,7.67
2022-10-09T04:35:56.028Z,7.66
2022-10-09T04:38:23.680Z,7.65
2022-10-09T04:41:01.400Z,7.62
2022-10-09T04:43:29.039Z,7.62
2022-10-09T04:45:55.914Z,7.61
2022-10-09T04:48:22.920Z,7.59
2022-10-09T04:50:49.515Z,7.59
2022-10-09T04:53:16.064Z,7.58
2022-10-09T04:55:43.568Z,7.58
2022-10-09T04:58:11.722Z,7.62
2022-10-09T05:00:46.455Z,7.68
2022-10-09T05:03:13.318Z,8.12
2022-10-09T05:05:39.886Z,8.82
2022-10-09T05:08:06.694Z,9.48
2022-10-09T05:10:33.332Z,9.98
2022-10-09T05:13:00.042Z,10.38
2022-10-09T05:15:27.037Z,10.70
2022-10-09T05:17:53.615Z,11.10
2022-10-09T05:20:20.186Z,11.34
2022-10-09T05:22:47.786Z,11.48
2022-10-09T05:25:14.641Z,11.52
2022-10-09T05:27:41.421Z,11.58
2022-10-09T05:30:09.020Z,11.73
2022-10-09T05:32:35.706Z,11.90
2022-10-09T05:35:02.237Z,12.05
2022-10-09T05:37:28.767Z,12.20
2022-10-09T05:39:55.360Z,12.24
2022-10-09T05:42:21.898Z,12.20
2022-10-09T05:44:48.537Z,12.21
2022-10-09T05:47:17.905Z,12.29
2022-10-09T05:49:44.411Z,12.31
2022-10-09T05:52:11.070Z,12.30
2022-10-09T05:54:37.593Z,12.31
2022-10-09T05:57:04.977Z,12.32
2022-10-09T05:59:31.585Z,12.37
2022-10-09T06:01:59.148Z,12.36
2022-10-09T06:04:25.802Z,12.36
2022-10-09T06:06:52.393Z,12.41
2022-10-09T06:09:25.395Z,12.31
2022-10-09T06:11:53.998Z,12.21
2022-10-09T06:14:24.493Z,12.16
2022-10-09T06:16:51.239Z,11.94
2022-10-09T06:19:19.453Z,11.89
2022-10-09T06:21:47.254Z,11.88
2022-10-09T06:24:22.240Z,11.92
2022-10-09T06:26:51.047Z,12.02
2022-10-09T06:29:17.486Z,11.97
2022-10-09T06:31:44.020Z,12.08
2022-10-09T06:34:11.139Z,12.14
2022-10-09T06:36:37.787Z,12.21
2022-10-09T06:39:06.729Z,12.22
2022-10-09T06:41:34.223Z,12.04
2022-10-09T06:44:06.387Z,12.04
2022-10-09T06:46:37.964Z,12.12
2022-10-09T06:49:06.293Z,12.03
2022-10-09T06:51:34.272Z,11.89
2022-10-09T06:54:03.344Z,11.81
2022-10-09T06:56:32.222Z,11.57
2022-10-09T06:59:03.709Z,11.35
2022-10-09T07:01:32.252Z,11.35
2022-10-09T07:04:07.319Z,11.48
2022-10-09T07:06:37.253Z,11.57
2022-10-09T07:09:07.220Z,11.65
2022-10-09T07:11:39.460Z,11.62
2022-10-09T07:14:08.034Z,11.71
2022-10-09T07:16:37.653Z,11.93
2022-10-09T07:19:07.738Z,12.09
2022-10-09T07:21:38.521Z,12.23
2022-10-09T07:24:06.041Z,12.05
2022-10-09T07:26:35.991Z,12.12
2022-10-09T07:29:04.273Z,12.40
2022-10-09T07:31:30.826Z,12.68
2022-10-09T07:33:57.706Z,12.90
2022-10-09T07:36:24.445Z,13.01
2022-10-09T07:38:55.515Z,13.00
2022-10-09T07:41:24.313Z,13.05
2022-10-09T07:43:51.013Z,13.19
2022-10-09T07:46:20.083Z,13.34
2022-10-09T07:48:47.305Z,13.36
2022-10-09T07:51:19.876Z,13.16
2022-10-09T07:53:47.482Z,12.80
2022-10-09T07:56:19.734Z,12.52
2022-10-09T07:58:54.579Z,12.23
2022-10-09T08:01:22.747Z,12.04
2022-10-09T08:03:50.050Z,11.85
2022-10-09T08:06:18.218Z,11.72
2022-10-09T08:08:45.406Z,11.62
2022-10-09T08:11:15.199Z,11.61
2022-10-09T08:13:42.815Z,11.60
2022-10-09T08:16:09.783Z,11.59
2022-10-09T08:18:37.046Z,11.61
2022-10-09T08:21:07.481Z,11.56
2022-10-09T08:23:34.274Z,11.64
2022-10-09T08:26:00.921Z,11.70
2022-10-09T08:28:27.573Z,11.75
2022-10-09T08:30:54.209Z,11.78
2022-10-09T08:33:23.282Z,11.84
2022-10-09T08:35:50.384Z,11.90
2022-10-09T08:38:37.520Z,11.99
2022-10-09T08:41:09.264Z,12.10
2022-10-09T08:43:41.599Z,12.12
2022-10-09T08:46:20.906Z,12.20
2022-10-09T08:48:49.363Z,12.28
2022-10-09T08:51:23.496Z,12.31
2022-10-09T08:54:22.880Z,12.37
2022-10-09T08:56:51.844Z,12.49
2022-10-09T08:59:18.377Z,12.59
2022-10-09T09:02:13.131Z,12.71
2022-10-09T09:04:58.349Z,12.89
2022-10-09T09:07:40.578Z,13.06
2022-10-09T09:10:22.195Z,13.18
2022-10-09T09:13:02.808Z,13.30
2022-10-09T09:16:03.546Z,13.45
2022-10-09T09:18:51.311Z,13.57
2022-10-09T09:21:37.964Z,13.68
2022-10-09T09:24:13.921Z,13.78
2022-10-09T09:26:43.371Z,13.92
2022-10-09T09:29:13.959Z,14.03
2022-10-09T09:31:41.504Z,14.14
2022-10-09T09:34:36.388Z,14.25
2022-10-09T09:37:03.434Z,14.40
2022-10-09T09:40:24.217Z,14.49
2022-10-09T09:42:21.256Z,14.62
2022-10-09T09:45:02.970Z,14.79
2022-10-09T09:47:47.770Z,14.92
2022-10-09T09:50:35.097Z,15.04
2022-10-09T09:53:05.106Z,15.17
2022-10-09T09:55:33.849Z,15.31
2022-10-09T09:58:03.865Z,15.47
2022-10-09T10:00:30.770Z,15.63
2022-10-09T10:03:15.210Z,15.74
2022-10-09T10:05:43.597Z,15.84
2022-10-09T10:08:14.856Z,15.90
2022-10-09T10:10:47.718Z,15.98
2022-10-09T10:13:23.533Z,16.06
2022-10-09T10:15:55.897Z,16.14
2022-10-09T10:18:25.830Z,16.23
2022-10-09T10:20:55.921Z,16.37
2022-10-09T10:23:32.959Z,16.53
2022-10-09T10:26:03.655Z,16.64
2022-10-09T10:28:45.350Z,16.71
2022-10-09T10:31:21.861Z,16.89
2022-10-09T10:33:54.221Z,17.04
2022-10-09T10:36:20.998Z,17.07
2022-10-09T10:39:00.742Z,17.15
2022-10-09T10:41:42.516Z,17.25
2022-10-09T10:44:18.144Z,17.37
2022-10-09T10:46:52.435Z,17.45
2022-10-09T10:49:22.049Z,17.54
2022-10-09T10:52:20.301Z,17.60
2022-10-09T10:55:13.715Z,17.73
2022-10-09T10:57:50.608Z,17.85
2022-10-09T11:00:17.822Z,17.93
2022-10-09T11:03:10.136Z,18.03
2022-10-09T11:05:40.238Z,18.06
2022-10-09T11:08:21.526Z,18.14
2022-10-09T11:11:03.149Z,18.16
2022-10-09T11:13:46.186Z,18.22
2022-10-09T11:16:54.326Z,18.37
2022-10-09T11:19:45.655Z,18.48
2022-10-09T11:22:22.242Z,18.59
2022-10-09T11:25:04.834Z,18.69
2022-10-09T11:27:51.895Z,18.74
2022-10-09T11:30:19.632Z,18.84
2022-10-09T11:33:12.646Z,18.93
2022-10-09T11:35:58.605Z,18.80
2022-10-09T11:39:03.227Z,18.75
2022-10-09T11:41:31.127Z,18.83
2022-10-09T11:44:06.631Z,18.98
2022-10-09T11:46:54.626Z,19.02
2022-10-09T11:49:58.065Z,19.01
2022-10-09T11:52:36.711Z,19.08
2022-10-09T11:55:21.365Z,19.09
2022-10-09T11:57:48.307Z,19.15
2022-10-09T12:00:15.647Z,19.20
2022-10-09T12:02:43.675Z,19.28
2022-10-09T12:05:35.403Z,19.31
2022-10-09T12:08:14.068Z,19.42
2022-10-09T12:10:53.160Z,19.50
2022-10-09T12:13:53.829Z,19.63
2022-10-09T12:16:39.752Z,19.72
2022-10-09T12:19:24.889Z,19.78
2022-10-09T12:22:11.606Z,19.85
2022-10-09T12:24:41.694Z,19.98
2022-10-09T12:27:16.084Z,20.03
2022-10-09T12:29:50.859Z,19.97
2022-10-09T12:32:32.323Z,19.89
2022-10-09T12:35:01.040Z,19.91
2022-10-09T12:37:36.863Z,20.00
2022-10-09T12:40:20.960Z,19.98
2022-10-09T12:42:47.836Z,20.06
2022-10-09T12:45:21.327Z,20.06
2022-10-09T12:47:49.047Z,20.10
2022-10-09T12:50:31.957Z,20.10
2022-10-09T12:53:00.209Z,20.10
2022-10-09T12:55:28.810Z,20.11
2022-10-09T12:58:01.003Z,20.20
2022-10-09T13:00:27.680Z,20.24
2022-10-09T13:02:54.925Z,20.25
2022-10-09T13:05:22.033Z,20.39
2022-10-09T13:07:54.264Z,20.58
2022-10-09T13:10:23.819Z,20.81
2022-10-09T13:12:52.752Z,20.97
2022-10-09T13:15:35.323Z,21.19
2022-10-09T13:18:13.943Z,21.33
2022-10-09T13:20:40.586Z,21.46
2022-10-09T13:23:07.210Z,21.59
2022-10-09T13:25:40.845Z,21.69
2022-10-09T13:28:07.882Z,21.99
2022-10-09T13:30:34.618Z,22.39
2022-10-09T13:33:01.245Z,22.69
2022-10-09T13:35:27.800Z,23.05
2022-10-09T13:37:54.343Z,23.39
2022-10-09T13:40:21.983Z,23.69
2022-10-09T13:42:57.782Z,23.92
2022-10-09T13:45:24.485Z,24.10
2022-10-09T13:47:51.671Z,24.24
2022-10-09T13:50:19.745Z,24.43
2022-10-09T13:52:46.741Z,24.59
2022-10-09T13:55:14.666Z,24.81
2022-10-09T13:57:41.385Z,25.08
2022-10-09T14:00:08.708Z,25.33
2022-10-09T14:02:35.259Z,25.62
2022-10-09T14:05:01.777Z,25.94
2022-10-09T14:07:28.394Z,26.17
2022-10-09T14:09:54.927Z,26.44
2022-10-09T14:12:21.471Z,26.68
2022-10-09T14:14:48.038Z,26.94
2022-10-09T14:17:14.579Z,27.15
2022-10-09T14:19:41.170Z,27.21
2022-10-09T14:22:07.717Z,27.34
2022-10-09T14:24:34.490Z,27.27
2022-10-09T14:27:01.064Z,27.05
2022-10-09T14:29:27.607Z,26.81
2022-10-09T14:31:54.138Z,26.90
2022-10-09T14:34:20.755Z,27.05
2022-10-09T14:36:47.905Z,27.22
2022-10-09T14:39:15.056Z,27.33
2022-10-09T14:41:42.129Z,27.35
2022-10-09T14:44:09.409Z,27.18
2022-10-09T14:46:37.832Z,27.21
2022-10-09T14:49:07.900Z,27.26
2022-10-09T14:51:37.348Z,27.42
2022-10-09T14:54:05.696Z,27.60
2022-10-09T14:56:32.397Z,27.65
2022-10-09T14:59:01.042Z,27.76
2022-10-09T15:01:29.582Z,27.84
2022-10-09T15:03:56.581Z,27.72
2022-10-09T15:06:27.704Z,27.70
2022-10-09T15:08:59.240Z,27.90
2022-10-09T15:11:29.867Z,27.94
2022-10-09T15:13:56.694Z,27.89
2022-10-09T15:16:23.716Z,27.87
2022-10-09T15:18:51.807Z,27.89
2022-10-09T15:21:21.860Z,27.91
2022-10-09T15:23:49.635Z,27.94
2022-10-09T15:26:16.565Z,27.94
2022-10-09T15:28:44.242Z,27.86
2022-10-09T15:31:43.029Z,27.77
2022-10-09T15:34:16.758Z,27.73
2022-10-09T15:36:45.783Z,27.70
2022-10-09T15:39:13.833Z,27.65
2022-10-09T15:41:42.182Z,27.51
2022-10-09T15:44:20.693Z,26.77
2022-10-09T15:46:48.679Z,25.65
2022-10-09T15:49:15.388Z,24.64
2022-10-09T15:51:42.009Z,23.69
2022-10-09T15:54:08.791Z,22.90
2022-10-09T15:56:39.610Z,22.11
2022-10-09T15:59:06.980Z,21.39
2022-10-09T16:01:33.565Z,20.83
2022-10-09T16:04:00.116Z,20.35
2022-10-09T16:06:26.958Z,19.93
2022-10-09T16:08:57.439Z,19.56
2022-10-09T16:11:26.594Z,19.20
2022-10-09T16:13:55.388Z,18.90
2022-10-09T16:16:25.012Z,18.65
2022-10-09T16:18:52.054Z,18.40
2022-10-09T16:21:21.471Z,18.18
2022-10-09T16:23:48.451Z,17.98
2022-10-09T16:26:17.931Z,17.77
2022-10-09T16:28:45.718Z,17.61
2022-10-09T16:31:27.156Z,17.45
2022-10-09T16:33:54.252Z,17.32
2022-10-09T16:36:20.936Z,17.19
2022-10-09T16:38:47.678Z,17.04
2022-10-09T16:41:17.957Z,16.90
2022-10-09T16:43:47.149Z,16.74
2022-10-09T16:46:23.369Z,16.62
2022-10-09T16:48:51.189Z,16.49
2022-10-09T16:51:21.864Z,16.36
2022-10-09T16:53:50.815Z,16.28
2022-10-09T16:56:22.978Z,16.18
2022-10-09T16:58:49.907Z,16.08
2022-10-09T17:01:16.540Z,15.95
2022-10-09T17:03:43.192Z,15.85
2022-10-09T17:06:12.877Z,15.74
2022-10-09T17:08:39.743Z,15.62
2022-10-09T17:11:11.778Z,15.50
2022-10-09T17:13:38.769Z,15.33
2022-10-09T17:16:17.085Z,15.27
2022-10-09T17:18:45.509Z,15.19
2022-10-09T17:21:13.524Z,15.12
2022-10-09T17:23:40.478Z,15.07
2022-10-09T17:26:13.106Z,14.99
2022-10-09T17:28:40.838Z,14.93
2022-10-09T17:31:14.319Z,14.88
2022-10-09T17:33:42.945Z,14.82
2022-10-09T17:36:10.574Z,14.77
2022-10-09T17:38:37.618Z,14.72
2022-10-09T17:41:05.497Z,14.70
2022-10-09T17:43:32.479Z,14.66
2022-10-09T17:46:00.610Z,14.60
2022-10-09T17:48:27.919Z,14.54
2022-10-09T17:50:56.808Z,14.47
2022-10-09T17:53:23.582Z,14.43
2022-10-09T17:55:55.173Z,14.38
2022-10-09T17:58:23.648Z,14.31
2022-10-09T18:00:51.162Z,14.28
2022-10-09T18:03:18.469Z,14.23
2022-10-09T18:05:47.899Z,14.18
2022-10-09T18:08:16.245Z,14.13
2022-10-09T18:10:43.511Z,14.09
2022-10-09T18:13:11.190Z,14.05
2022-10-09T18:15:42.974Z,13.98
2022-10-09T18:18:11.372Z,13.94
2022-10-09T18:20:39.199Z,13.89
2022-10-09T18:23:07.532Z,13.86
2022-10-09T18:25:35.279Z,13.83
2022-10-09T18:28:01.804Z,13.77
2022-10-09T18:30:28.383Z,13.72
2022-10-09T18:32:54.962Z,13.69
2022-10-09T18:35:21.597Z,13.65
2022-10-09T18:37:48.097Z,13.60
2022-10-09T18:40:14.853Z,13.56
2022-10-09T18:42:41.441Z,13.51
2022-10-09T18:45:10.027Z,13.44
2022-10-09T18:47:36.654Z,13.40
2022-10-09T18:50:07.754Z,13.34
2022-10-09T18:52:35.667Z,13.31
2022-10-09T18:55:03.947Z,13.26
2022-10-09T18:57:30.632Z,13.21
2022-10-09T18:59:58.478Z,13.17
2022-10-09T19:02:27.103Z,13.12
2022-10-09T19:04:54.730Z,13.09
2022-10-09T19:07:21.554Z,13.02
2022-10-09T19:09:56.315Z,12.98
2022-10-09T19:12:24.569Z,12.95
2022-10-09T19:14:51.640Z,12.90
2022-10-09T19:17:18.228Z,12.85
2022-10-09T19:19:44.810Z,12.83
2022-10-09T19:22:15.829Z,12.81
2022-10-09T19:24:44.243Z,12.77
2022-10-09T19:27:10.890Z,12.74
2022-10-09T19:29:37.536Z,12.69
2022-10-09T19:32:04.200Z,12.63
2022-10-09T19:34:30.906Z,12.58
2022-10-09T19:36:57.915Z,12.55
2022-10-09T19:39:24.492Z,12.54
2022-10-09T19:41:51.235Z,12.52
2022-10-09T19:44:18.647Z,12.51
2022-10-09T19:46:45.945Z,12.51
2022-10-09T19:49:12.649Z,12.41
2022-10-09T19:51:39.693Z,12.43
2022-10-09T19:54:08.443Z,12.44
2022-10-09T19:56:36.177Z,12.41
2022-10-09T19:59:05.742Z,12.40
2022-10-09T20:01:35.421Z,12.37
2022-10-09T20:04:05.505Z,12.35
2022-10-09T20:06:32.295Z,12.31
2022-10-09T20:08:59.212Z,12.30
2022-10-09T20:11:26.577Z,12.26
2022-10-09T20:13:55.925Z,12.26
2022-10-09T20:16:24.185Z,12.24
2022-10-09T20:18:50.833Z,12.20
2022-10-09T20:21:18.301Z,12.17
2022-10-09T20:23:45.089Z,12.14
2022-10-09T20:26:18.060Z,12.10
2022-10-09T20:28:46.266Z,12.07
2022-10-09T20:31:16.454Z,12.05
2022-10-09T20:33:43.202Z,12.03
2022-10-09T20:36:19.559Z,11.98
2022-10-09T20:38:46.091Z,11.98
2022-10-09T20:41:12.870Z,11.95
2022-10-09T20:43:40.279Z,11.93
2022-10-09T20:46:08.655Z,11.90
2022-10-09T20:48:35.748Z,11.87
2022-10-09T20:51:03.072Z,11.84
2022-10-09T20:53:29.771Z,11.82
2022-10-09T20:56:06.737Z,11.80
2022-10-09T20:58:33.810Z,11.79
2022-10-09T21:01:00.646Z,11.77
2022-10-09T21:03:27.293Z,11.75
2022-10-09T21:05:53.829Z,11.73
2022-10-09T21:08:20.411Z,11.70
2022-10-09T21:10:49.206Z,11.69
2022-10-09T21:13:16.908Z,11.68
2022-10-09T21:15:48.652Z,11.65
2022-10-09T21:18:17.309Z,11.64
2022-10-09T21:20:46.839Z,11.61
2022-10-09T21:23:15.718Z,11.60
2022-10-09T21:25:53.325Z,11.53
2022-10-09T21:28:21.134Z,11.52
2022-10-09T21:30:48.420Z,11.49
2022-10-09T21:33:15.581Z,11.51
2022-10-09T21:35:44.905Z,11.49
2022-10-09T21:38:14.575Z,11.48
2022-10-09T21:40:41.628Z,11.45
2022-10-09T21:43:08.816Z,11.43
2022-10-09T21:45:35.792Z,11.37
2022-10-09T21:48:02.422Z,11.34
2022-10-09T21:50:29.036Z,11.30
2022-10-09T21:52:55.908Z,11.27
2022-10-09T21:55:22.433Z,11.23
2022-10-09T21:57:49.230Z,11.20
2022-10-09T22:00:15.946Z,11.15
2022-10-09T22:02:42.554Z,11.12
2022-10-09T22:05:09.794Z,11.09
2022-10-09T22:07:36.543Z,11.06
2022-10-09T22:10:04.374Z,11.07
2022-10-09T22:12:30.929Z,11.02
2022-10-09T22:14:57.463Z,11.00
2022-10-09T22:17:24.064Z,10.99
2022-10-09T22:19:50.921Z,10.98
2022-10-09T22:22:17.772Z,10.95
2022-10-09T22:24:44.341Z,10.93
2022-10-09T22:27:10.873Z,10.90
2022-10-09T22:29:38.426Z,10.88
2022-10-09T22:32:06.024Z,10.84
2022-10-09T22:34:32.825Z,10.75
2022-10-09T22:36:59.258Z,10.70
2022-10-09T22:39:25.897Z,10.76
2022-10-09T22:41:52.456Z,10.79
2022-10-09T22:44:19.020Z,10.82
2022-10-09T22:46:45.730Z,10.85
2022-10-09T22:49:14.703Z,10.84
2022-10-09T22:51:41.318Z,10.75
2022-10-09T22:54:08.529Z,10.77
2022-10-09T22:56:40.319Z,10.75
2022-10-09T22:59:08.658Z,10.75
2022-10-09T23:01:45.303Z,10.77
2022-10-09T23:04:14.538Z,10.77
2022-10-09T23:06:41.557Z,10.75
2022-10-09T23:09:11.304Z,10.71
2022-10-09T23:11:37.956Z,10.68
2022-10-09T23:14:04.521Z,10.64
2022-10-09T23:16:31.267Z,10.63
2022-10-09T23:19:05.403Z,10.60
2022-10-09T23:21:33.497Z,10.58
2022-10-09T23:24:00.052Z,10.55
2022-10-09T23:26:29.452Z,10.52
2022-10-09T23:28:59.910Z,10.50
2022-10-09T23:31:27.305Z,10.47
2022-10-09T23:33:54.796Z,10.46
2022-10-09T23:36:23.985Z,10.45
2022-10-09T23:38:51.242Z,10.44
2022-10-09T23:41:20.781Z,10.44
2022-10-09T23:43:48.513Z,10.43
2022-10-09T23:46:18.536Z,10.41
2022-10-09T23:48:46.236Z,10.39
2022-10-09T23:51:14.224Z,10.33
2022-10-09T23:53:41.599Z,10.31
2022-10-09T23:56:18.821Z,10.25
2022-10-09T23:58:45.650Z,10.23
